createdAt,value
2022-11-19T00:02:00.946Z,99704.75
2022-11-19T00:04:30.056Z,99709.22
2022-11-19T00:06:58.474Z,99702.75
2022-11-19T00:09:26.435Z,99714.00
2022-11-19T00:12:11.887Z,99710.31
2022-11-19T00:14:39.632Z,99719.31
2022-11-19T00:17:08.633Z,99718.03
2022-11-19T00:19:37.700Z,99711.22
2022-11-19T00:22:05.469Z,99714.06
2022-11-19T00:24:33.255Z,99710.38
2022-11-19T00:27:00.927Z,99711.06
2022-11-19T00:29:28.663Z,99711.34
2022-11-19T00:31:56.319Z,99711.38
2022-11-19T00:34:24.038Z,99705.78
2022-11-19T00:36:53.059Z,99715.41
2022-11-19T00:39:21.248Z,99705.63
2022-11-19T00:41:49.356Z,99703.78
2022-11-19T00:44:17.064Z,99704.75
2022-11-19T00:46:44.730Z,99710.06
2022-11-19T00:49:12.455Z,99703.47
2022-11-19T00:51:40.195Z,99704.25
2022-11-19T00:54:09.208Z,99701.78
2022-11-19T00:56:36.887Z,99701.44
2022-11-19T00:59:05.606Z,99704.75
2022-11-19T01:01:33.330Z,99698.78
2022-11-19T01:04:01.090Z,99705.09
2022-11-19T01:06:28.763Z,99705.09
2022-11-19T01:08:56.404Z,99706.47
2022-11-19T01:11:27.862Z,99700.34
2022-11-19T01:13:55.981Z,99709.16
2022-11-19T01:16:26.996Z,99710.63
2022-11-19T01:18:54.989Z,99708.28
2022-11-19T01:21:24.823Z,99713.06
2022-11-19T01:23:52.670Z,99718.88
2022-11-19T01:26:21.121Z,99718.38
2022-11-19T01:28:52.641Z,99715.75
2022-11-19T01:31:22.752Z,99714.13
2022-11-19T01:33:51.502Z,99726.38
2022-11-19T01:36:21.948Z,99716.72
2022-11-19T01:38:50.971Z,99721.06
2022-11-19T01:41:19.188Z,99724.72
2022-11-19T01:43:49.418Z,99718.09
2022-11-19T01:46:20.922Z,99716.13
2022-11-19T01:48:53.110Z,99709.78
2022-11-19T01:51:25.988Z,99716.72
2022-11-19T01:53:56.910Z,99722.34
2022-11-19T01:56:26.060Z,99716.19
2022-11-19T01:58:56.653Z,99722.16
2022-11-19T02:01:25.889Z,99721.84
2022-11-19T02:03:54.028Z,99717.34
2022-11-19T02:06:22.053Z,99724.69
2022-11-19T02:08:51.611Z,99712.41
2022-11-19T02:11:33.816Z,99718.38
2022-11-19T02:14:14.809Z,99714.44
2022-11-19T02:16:53.333Z,99713.44
2022-11-19T02:19:53.314Z,99715.75
2022-11-19T02:22:39.401Z,99717.09
2022-11-19T02:25:15.221Z,99720.25
2022-11-19T02:28:05.733Z,99711.84
2022-11-19T02:30:38.011Z,99715.16
2022-11-19T02:33:10.232Z,99722.63
2022-11-19T02:35:47.505Z,99722.91
2022-11-19T02:38:25.161Z,99716.78
2022-11-19T02:40:57.750Z,99720.44
2022-11-19T02:43:33.944Z,99725.59
2022-11-19T02:46:09.281Z,99722.47
2022-11-19T02:48:40.088Z,99726.09
2022-11-19T02:51:09.146Z,99727.41
2022-11-19T02:53:37.091Z,99729.09
2022-11-19T02:56:13.596Z,99723.09
2022-11-19T02:59:04.792Z,99725.09
2022-11-19T03:01:54.519Z,99719.25
2022-11-19T03:04:31.107Z,99733.00
2022-11-19T03:07:02.470Z,99730.31
2022-11-19T03:09:32.154Z,99733.66
2022-11-19T03:12:09.574Z,99738.25
2022-11-19T03:15:03.441Z,99735.44
2022-11-19T03:17:41.568Z,99723.66
2022-11-19T03:20:17.263Z,99741.22
2022-11-19T03:22:53.294Z,99741.72
2022-11-19T03:25:27.466Z,99753.22
2022-11-19T03:28:01.788Z,99737.84
2022-11-19T03:30:31.114Z,99742.00
2022-11-19T03:33:04.924Z,99741.34
2022-11-19T03:35:37.508Z,99742.66
2022-11-19T03:38:09.457Z,99735.06
2022-11-19T03:40:38.530Z,99742.69
2022-11-19T03:43:10.505Z,99749.16
2022-11-19T03:45:43.471Z,99750.00
2022-11-19T03:48:14.611Z,99752.94
2022-11-19T03:50:49.457Z,99750.41
2022-11-19T03:53:18.687Z,99758.03
2022-11-19T03:55:50.181Z,99757.69
2022-11-19T03:58:18.091Z,99755.53
2022-11-19T04:00:45.759Z,99762.69
2022-11-19T04:03:14.848Z,99773.31
2022-11-19T04:05:42.485Z,99774.63
2022-11-19T04:08:10.408Z,99781.94
2022-11-19T04:10:38.136Z,99776.94
2022-11-19T04:13:05.797Z,99780.63
2022-11-19T04:15:33.523Z,99776.81
2022-11-19T04:18:16.546Z,99786.94
2022-11-19T04:20:45.054Z,99792.56
2022-11-19T04:23:12.768Z,99792.06
2022-11-19T04:25:41.420Z,99792.06
2022-11-19T04:28:09.148Z,99791.91
2022-11-19T04:30:36.853Z,99799.03
2022-11-19T04:33:05.097Z,99798.22
2022-11-19T04:35:34.316Z,99802.69
2022-11-19T04:38:02.000Z,99807.16
2022-11-19T04:40:29.758Z,99811.47
2022-11-19T04:42:57.521Z,99806.16
2022-11-19T04:45:25.170Z,99810.63
2022-11-19T04:47:52.778Z,99815.56
2022-11-19T04:50:20.453Z,99814.56
2022-11-19T04:52:49.497Z,99809.09
2022-11-19T04:55:17.287Z,99806.13
2022-11-19T04:57:44.997Z,99805.94
2022-11-19T05:00:13.965Z,99802.28
2022-11-19T05:02:41.587Z,99798.94
2022-11-19T05:05:09.959Z,99795.91
2022-11-19T05:07:37.663Z,99798.88
2022-11-19T05:10:07.490Z,99795.91
2022-11-19T05:12:35.440Z,99789.78
2022-11-19T05:15:03.126Z,99790.72
2022-11-19T05:17:30.745Z,99801.44
2022-11-19T05:19:59.972Z,99807.19
2022-11-19T05:22:27.812Z,99806.03
2022-11-19T05:24:55.456Z,99809.34
2022-11-19T05:27:24.450Z,99806.66
2022-11-19T05:29:52.059Z,99802.66
2022-11-19T05:32:19.746Z,99804.38
2022-11-19T05:34:47.556Z,99805.03
2022-11-19T05:37:15.426Z,99809.34
2022-11-19T05:39:43.307Z,99808.72
2022-11-19T05:42:10.973Z,99799.81
2022-11-19T05:44:39.980Z,99805.09
2022-11-19T05:47:07.593Z,99808.53
2022-11-19T05:49:35.250Z,99806.19
2022-11-19T05:52:02.955Z,99814.25
2022-11-19T05:54:30.690Z,99807.97
2022-11-19T05:56:58.380Z,99818.44
2022-11-19T05:59:26.042Z,99820.38
2022-11-19T06:01:55.048Z,99821.53
2022-11-19T06:04:22.679Z,99825.84
2022-11-19T06:06:50.568Z,99821.69
2022-11-19T06:09:18.443Z,99824.91
2022-11-19T06:11:50.236Z,99822.56
2022-11-19T06:14:19.077Z,99823.66
2022-11-19T06:16:46.858Z,99824.34
2022-11-19T06:19:16.052Z,99818.84
2022-11-19T06:21:43.880Z,99819.97
2022-11-19T06:24:14.007Z,99831.97
2022-11-19T06:26:42.077Z,99826.50
2022-11-19T06:29:10.584Z,99835.03
2022-11-19T06:31:38.353Z,99841.78
2022-11-19T06:34:06.111Z,99828.69
2022-11-19T06:36:40.424Z,99835.81
2022-11-19T06:39:11.130Z,99830.13
2022-11-19T06:41:38.808Z,99836.59
2022-11-19T06:44:06.455Z,99841.41
2022-11-19T06:46:34.223Z,99841.56
2022-11-19T06:49:03.680Z,99848.06
2022-11-19T06:51:31.451Z,99852.19
2022-11-19T06:54:00.614Z,99851.84
2022-11-19T06:56:28.281Z,99851.31
2022-11-19T06:58:57.392Z,99856.97
2022-11-19T07:01:25.579Z,99857.19
2022-11-19T07:03:53.329Z,99859.41
2022-11-19T07:06:21.124Z,99865.31
2022-11-19T07:08:48.996Z,99872.06
2022-11-19T07:11:27.156Z,99871.25
2022-11-19T07:13:59.075Z,99866.25
2022-11-19T07:16:31.091Z,99867.09
2022-11-19T07:19:00.062Z,99870.06
2022-11-19T07:21:28.765Z,99877.00
2022-11-19T07:23:56.685Z,99885.25
2022-11-19T07:26:26.836Z,99882.69
2022-11-19T07:28:54.750Z,99875.06
2022-11-19T07:31:23.123Z,99880.34
2022-11-19T07:33:50.838Z,99883.31
2022-11-19T07:36:18.837Z,99889.06
2022-11-19T07:38:47.087Z,99886.56
2022-11-19T07:41:28.832Z,99897.97
2022-11-19T07:43:57.964Z,99897.97
2022-11-19T07:46:25.848Z,99909.47
2022-11-19T07:48:55.359Z,99905.84
2022-11-19T07:51:23.512Z,99913.41
2022-11-19T07:53:51.323Z,99908.41
2022-11-19T07:56:19.407Z,99919.31
2022-11-19T07:58:47.204Z,99911.19
2022-11-19T08:01:18.933Z,99915.66
2022-11-19T08:03:50.582Z,99920.66
2022-11-19T08:06:23.283Z,99917.41
2022-11-19T08:08:50.949Z,99926.72
2022-11-19T08:11:19.276Z,99921.41
2022-11-19T08:13:47.121Z,99918.84
2022-11-19T08:16:37.605Z,99930.88
2022-11-19T08:19:07.210Z,99935.19
2022-11-19T08:21:35.461Z,99934.25
2022-11-19T08:24:03.255Z,99939.03
2022-11-19T08:26:30.913Z,99934.03
2022-11-19T08:29:00.813Z,99933.19
2022-11-19T08:31:30.098Z,99935.00
2022-11-19T08:33:57.808Z,99945.22
2022-11-19T08:36:25.519Z,99947.72
2022-11-19T08:38:53.186Z,99953.91
2022-11-19T08:41:38.227Z,99953.75
2022-11-19T08:44:06.302Z,99965.31
2022-11-19T08:46:35.567Z,99967.41
2022-11-19T08:49:03.162Z,99963.09
2022-11-19T08:51:30.884Z,99973.59
2022-11-19T08:53:58.542Z,99969.72
2022-11-19T08:56:26.274Z,99973.22
2022-11-19T08:58:57.353Z,99971.31
2022-11-19T09:01:27.588Z,99978.78
2022-11-19T09:03:56.629Z,99976.59
2022-11-19T09:06:24.384Z,99969.50
2022-11-19T09:08:52.020Z,99987.41
2022-11-19T09:11:21.627Z,99986.94
2022-11-19T09:13:49.556Z,99992.81
2022-11-19T09:16:17.475Z,99994.78
2022-11-19T09:18:45.195Z,99990.78
2022-11-19T09:21:14.259Z,99988.28
2022-11-19T09:23:42.687Z,99999.97
2022-11-19T09:26:15.894Z,100005.22
2022-11-19T09:28:44.275Z,99999.94
2022-11-19T09:31:14.460Z,100004.13
2022-11-19T09:33:43.827Z,99999.69
2022-11-19T09:36:12.317Z,100009.41
2022-11-19T09:38:41.671Z,100013.41
2022-11-19T09:41:44.734Z,100012.22
2022-11-19T09:44:23.581Z,100010.31
2022-11-19T09:47:02.257Z,100015.31
2022-11-19T09:49:35.336Z,100014.75
2022-11-19T09:52:11.125Z,100018.50
2022-11-19T09:54:45.630Z,100025.31
2022-11-19T09:57:19.444Z,100027.50
2022-11-19T09:59:48.757Z,100037.56
2022-11-19T10:02:18.999Z,100039.41
2022-11-19T10:04:48.227Z,100032.91
2022-11-19T10:07:31.203Z,100040.94
2022-11-19T10:10:16.256Z,100036.75
2022-11-19T10:13:12.741Z,100029.81
2022-11-19T10:15:58.728Z,100032.59
2022-11-19T10:18:36.679Z,100038.84
2022-11-19T10:21:10.773Z,100037.88
2022-11-19T10:23:50.460Z,100036.50
2022-11-19T10:26:25.534Z,100034.13
2022-11-19T10:28:56.964Z,100038.44
2022-11-19T10:31:35.857Z,100036.06
2022-11-19T10:34:12.826Z,100028.44
2022-11-19T10:36:44.409Z,100031.94
2022-11-19T10:39:19.413Z,100029.31
2022-11-19T10:41:54.937Z,100029.44
2022-11-19T10:44:39.992Z,100033.19
2022-11-19T10:47:11.737Z,100027.63
2022-11-19T10:49:41.855Z,100027.34
2022-11-19T10:52:18.840Z,100033.03
2022-11-19T10:54:48.522Z,100034.00
2022-11-19T10:57:20.158Z,100042.38
2022-11-19T10:59:50.640Z,100036.53
2022-11-19T11:02:27.987Z,100034.03
2022-11-19T11:05:14.520Z,100043.47
2022-11-19T11:07:57.085Z,100044.88
2022-11-19T11:10:46.345Z,100043.38
2022-11-19T11:13:46.415Z,100034.03
2022-11-19T11:16:18.455Z,100031.25
2022-11-19T11:18:47.579Z,100028.22
2022-11-19T11:21:33.109Z,100028.59
2022-11-19T11:24:02.693Z,100036.38
2022-11-19T11:26:33.619Z,100036.66
2022-11-19T11:29:05.337Z,100040.50
2022-11-19T11:31:36.787Z,100043.97
2022-11-19T11:34:06.031Z,100047.06
2022-11-19T11:36:36.728Z,100054.44
2022-11-19T11:39:06.266Z,100043.47
2022-11-19T11:44:28.668Z,100041.00
2022-11-19T11:46:59.535Z,100042.38
2022-11-19T11:49:31.007Z,100043.38
2022-11-19T11:52:17.627Z,100037.38
2022-11-19T11:54:57.499Z,100047.66
2022-11-19T11:57:27.592Z,100049.03
2022-11-19T11:59:56.966Z,100046.25
2022-11-19T12:02:30.263Z,100043.47
2022-11-19T12:05:02.064Z,100043.75
2022-11-19T12:07:47.062Z,100043.31
2022-11-19T12:10:25.412Z,100043.16
2022-11-19T12:13:08.500Z,100046.63
2022-11-19T12:15:47.042Z,100049.25
2022-11-19T12:18:27.538Z,100053.88
2022-11-19T12:21:02.969Z,100047.34
2022-11-19T12:23:53.493Z,100041.09
2022-11-19T12:26:32.294Z,100036.91
2022-11-19T12:29:13.384Z,100033.16
2022-11-19T12:31:56.539Z,100034.28
2022-11-19T12:34:47.887Z,100038.19
2022-11-19T12:37:28.527Z,100043.31
2022-11-19T12:40:01.383Z,100051.78
2022-11-19T12:42:41.357Z,100050.97
2022-11-19T12:45:18.430Z,100041.41
2022-11-19T12:48:12.898Z,100039.88
2022-11-19T12:50:51.725Z,100030.69
2022-11-19T12:53:33.614Z,100040.28
2022-11-19T12:56:12.429Z,100058.75
2022-11-19T12:58:51.490Z,100062.09
2022-11-19T13:01:24.708Z,100065.19
2022-11-19T13:04:04.234Z,100060.88
2022-11-19T13:06:37.137Z,100057.66
2022-11-19T13:09:10.360Z,100057.06
2022-11-19T13:11:43.739Z,100055.69
2022-11-19T13:14:18.817Z,100057.91
2022-11-19T13:16:47.207Z,100050.00
2022-11-19T13:19:25.937Z,100054.63
2022-11-19T13:21:58.455Z,100048.22
2022-11-19T13:24:32.378Z,100056.84
2022-11-19T13:27:04.901Z,100061.53
2022-11-19T13:29:38.385Z,100052.66
2022-11-19T13:32:16.612Z,100058.50
2022-11-19T13:35:00.841Z,100056.97
2022-11-19T13:37:40.239Z,100049.34
2022-11-19T13:40:20.660Z,100047.47
2022-11-19T13:46:06.526Z,100052.94
2022-11-19T13:48:39.927Z,100062.66
2022-11-19T13:51:21.249Z,100059.84
2022-11-19T13:53:49.299Z,100063.34
2022-11-19T13:56:18.254Z,100057.94
2022-11-19T13:58:48.566Z,100059.31
2022-11-19T14:01:32.042Z,100064.88
2022-11-19T14:04:18.088Z,100065.31
2022-11-19T14:07:00.463Z,100067.84
2022-11-19T14:09:38.568Z,100067.41
2022-11-19T14:12:46.136Z,100064.63
2022-11-19T14:15:50.425Z,100074.38
2022-11-19T14:18:43.544Z,100076.47
2022-11-19T14:22:10.689Z,100084.22
2022-11-19T14:25:15.843Z,100075.78
2022-11-19T14:27:44.510Z,100081.88
2022-11-19T14:30:17.767Z,100086.59
2022-11-19T14:32:51.653Z,100088.00
2022-11-19T14:35:30.749Z,100090.34
2022-11-19T14:38:10.997Z,100097.84
2022-11-19T14:40:43.720Z,100102.16
2022-11-19T14:43:42.149Z,100109.13
2022-11-19T14:46:33.592Z,100098.97
2022-11-19T14:49:05.889Z,100099.94
2022-11-19T14:51:39.106Z,100097.72
2022-11-19T14:54:30.067Z,100092.13
2022-11-19T14:57:25.551Z,100081.03
2022-11-19T14:59:56.334Z,100076.16
2022-11-19T15:02:27.587Z,100084.66
2022-11-19T15:05:02.771Z,100091.88
2022-11-19T15:07:40.972Z,100096.06
2022-11-19T15:10:29.171Z,100090.78
2022-11-19T15:13:22.721Z,100092.44
2022-11-19T15:15:53.801Z,100096.06
2022-11-19T15:19:01.948Z,100095.09
2022-11-19T15:22:06.791Z,100097.97
2022-11-19T15:24:50.728Z,100108.53
2022-11-19T15:27:28.028Z,100114.91
2022-11-19T15:30:07.493Z,100107.31
2022-11-19T15:33:03.406Z,100107.88
2022-11-19T15:36:05.387Z,100109.38
2022-11-19T15:38:39.589Z,100105.19
2022-11-19T15:41:13.371Z,100104.09
2022-11-19T15:43:46.957Z,100103.00
2022-11-19T15:46:20.096Z,100107.16
2022-11-19T15:48:58.635Z,100110.78
2022-11-19T15:51:26.637Z,100109.94
2022-11-19T15:54:01.340Z,100100.50
2022-11-19T15:56:33.003Z,100106.59
2022-11-19T15:59:03.339Z,100111.88
2022-11-19T16:01:34.344Z,100117.16
2022-11-19T16:04:07.510Z,100114.53
2022-11-19T16:06:37.588Z,100132.88
2022-11-19T16:09:05.923Z,100127.72
2022-11-19T16:11:54.853Z,100124.94
2022-11-19T16:14:42.974Z,100121.06
2022-11-19T16:17:41.673Z,100113.41
2022-11-19T16:20:20.460Z,100118.22
2022-11-19T16:22:53.800Z,100121.16
2022-11-19T16:25:32.296Z,100124.34
2022-11-19T16:28:03.105Z,100120.88
2022-11-19T16:30:40.641Z,100116.03
2022-11-19T16:33:15.888Z,100125.50
2022-11-19T16:35:47.159Z,100132.28
2022-11-19T16:38:23.113Z,100136.88
2022-11-19T16:41:08.339Z,100138.38
2022-11-19T16:43:37.427Z,100145.19
2022-11-19T16:46:07.877Z,100150.47
2022-11-19T16:49:00.252Z,100151.31
2022-11-19T16:51:37.292Z,100147.69
2022-11-19T16:54:06.896Z,100149.63
2022-11-19T16:56:52.563Z,100146.47
2022-11-19T16:59:23.827Z,100149.91
2022-11-19T17:01:59.631Z,100146.28
2022-11-19T17:04:31.410Z,100144.06
2022-11-19T17:07:00.131Z,100145.00
2022-11-19T17:09:41.541Z,100149.88
2022-11-19T17:12:25.111Z,100151.00
2022-11-19T17:14:59.039Z,100147.09
2022-11-19T17:17:40.416Z,100147.56
2022-11-19T17:20:45.141Z,100149.06
2022-11-19T17:23:17.205Z,100149.06
2022-11-19T17:25:50.507Z,100150.56
2022-11-19T17:28:21.433Z,100152.19
2022-11-19T17:30:50.466Z,100149.97
2022-11-19T17:33:22.853Z,100158.72
2022-11-19T17:35:52.104Z,100159.56
2022-11-19T17:38:23.702Z,100163.59
2022-11-19T17:40:53.190Z,100165.69
2022-11-19T17:43:41.604Z,100162.78
2022-11-19T17:46:09.318Z,100165.69
2022-11-19T17:48:40.491Z,100157.34
2022-11-19T17:51:10.754Z,100157.63
2022-11-19T17:53:38.473Z,100156.16
2022-11-19T17:56:06.963Z,100165.41
2022-11-19T17:58:34.709Z,100171.66
2022-11-19T18:01:02.540Z,100179.81
2022-11-19T18:03:30.242Z,100179.56
2022-11-19T18:06:01.335Z,100183.53
2022-11-19T18:08:29.382Z,100189.53
2022-11-19T18:10:57.277Z,100185.06
2022-11-19T18:13:28.029Z,100187.25
2022-11-19T18:15:55.727Z,100182.53
2022-11-19T18:18:23.420Z,100184.47
2022-11-19T18:20:51.560Z,100184.81
2022-11-19T18:23:20.611Z,100186.00
2022-11-19T18:25:48.314Z,100180.50
2022-11-19T18:28:16.057Z,100187.56
2022-11-19T18:30:43.985Z,100194.72
2022-11-19T18:33:12.422Z,100194.72
2022-11-19T18:35:40.121Z,100191.38
2022-11-19T18:38:07.779Z,100188.34
2022-11-19T18:40:37.019Z,100190.41
2022-11-19T18:43:22.761Z,100187.25
2022-11-19T18:45:50.423Z,100193.66
2022-11-19T18:48:18.101Z,100199.78
2022-11-19T18:50:45.959Z,100196.47
2022-11-19T18:53:14.080Z,100194.94
2022-11-19T18:55:43.109Z,100196.44
2022-11-19T18:58:10.825Z,100194.59
2022-11-19T19:00:38.507Z,100199.03
2022-11-19T19:03:08.037Z,100205.00
2022-11-19T19:05:35.742Z,100209.31
2022-11-19T19:08:03.488Z,100213.03
2022-11-19T19:10:31.204Z,100210.16
2022-11-19T19:12:59.508Z,100206.16
2022-11-19T19:15:27.280Z,100203.88
2022-11-19T19:17:55.038Z,100213.38
2022-11-19T19:20:22.740Z,100208.25
2022-11-19T19:22:50.492Z,100216.16
2022-11-19T19:25:18.299Z,100212.69
2022-11-19T19:27:46.029Z,100211.16
2022-11-19T19:30:16.007Z,100213.81
2022-11-19T19:32:44.467Z,100213.34
2022-11-19T19:35:12.204Z,100208.59
2022-11-19T19:37:41.764Z,100216.91
2022-11-19T19:40:11.020Z,100215.81
2022-11-19T19:42:41.351Z,100216.38
2022-11-19T19:45:10.076Z,100216.69
2022-11-19T19:47:39.152Z,100205.72
2022-11-19T19:50:07.836Z,100215.97
2022-11-19T19:52:35.571Z,100215.03
2022-11-19T19:55:03.379Z,100216.25
2022-11-19T19:57:31.154Z,100232.47
2022-11-19T19:59:59.657Z,100225.50
2022-11-19T20:02:27.411Z,100230.91
2022-11-19T20:04:56.453Z,100229.94
2022-11-19T20:07:24.230Z,100237.72
2022-11-19T20:09:51.975Z,100234.97
2022-11-19T20:12:19.570Z,100229.16
2022-11-19T20:14:47.713Z,100224.44
2022-11-19T20:17:15.564Z,100231.88
2022-11-19T20:19:43.277Z,100234.06
2022-11-19T20:22:12.268Z,100230.47
2022-11-19T20:24:39.971Z,100227.38
2022-11-19T20:27:07.624Z,100231.25
2022-11-19T20:29:35.267Z,100224.06
2022-11-19T20:32:03.038Z,100229.59
2022-11-19T20:34:30.747Z,100231.50
2022-11-19T20:36:58.521Z,100229.72
2022-11-19T20:39:27.573Z,100230.94
2022-11-19T20:42:12.714Z,100246.88
2022-11-19T20:44:40.494Z,100245.75
2022-11-19T20:47:08.141Z,100242.28
2022-11-19T20:49:38.058Z,100245.47
2022-11-19T20:52:06.656Z,100243.00
2022-11-19T20:54:35.748Z,100243.97
2022-11-19T20:57:03.720Z,100258.22
2022-11-19T20:59:31.736Z,100258.75
2022-11-19T21:01:59.527Z,100255.41
2022-11-19T21:04:28.454Z,100255.94
2022-11-19T21:06:56.400Z,100263.31
2022-11-19T21:09:24.771Z,100253.38
2022-11-19T21:11:54.280Z,100259.16
2022-11-19T21:14:22.160Z,100254.19
2022-11-19T21:16:49.963Z,100257.09
2022-11-19T21:19:17.898Z,100252.97
2022-11-19T21:21:45.818Z,100247.19
2022-11-19T21:24:13.757Z,100247.00
2022-11-19T21:26:41.693Z,100243.91
2022-11-19T21:29:10.886Z,100237.13
2022-11-19T21:31:39.763Z,100238.91
2022-11-19T21:34:08.769Z,100241.63
2022-11-19T21:36:37.254Z,100246.88
2022-11-19T21:39:06.054Z,100242.81
2022-11-19T21:41:35.925Z,100237.38
2022-11-19T21:44:04.286Z,100244.19
2022-11-19T21:46:33.843Z,100238.66
2022-11-19T21:49:01.782Z,100238.38
2022-11-19T21:51:29.738Z,100242.50
2022-11-19T21:53:58.690Z,100239.28
2022-11-19T21:56:28.162Z,100243.75
2022-11-19T21:58:55.876Z,100240.13
2022-11-19T22:01:23.583Z,100231.53
2022-11-19T22:03:52.601Z,100237.44
2022-11-19T22:06:23.010Z,100242.91
2022-11-19T22:08:50.680Z,100245.34
2022-11-19T22:11:30.792Z,100242.44
2022-11-19T22:14:00.533Z,100245.53
2022-11-19T22:16:28.612Z,100250.81
2022-11-19T22:18:57.701Z,100243.28
2022-11-19T22:21:25.427Z,100237.13
2022-11-19T22:23:53.622Z,100238.72
2022-11-19T22:26:21.411Z,100239.41
2022-11-19T22:28:49.121Z,100231.00
2022-11-19T22:31:16.869Z,100234.06
2022-11-19T22:33:44.613Z,100235.16
2022-11-19T22:36:13.603Z,100232.66
2022-11-19T22:38:41.288Z,100234.84
2022-11-19T22:41:11.341Z,100237.31
2022-11-19T22:43:40.153Z,100229.47
2022-11-19T22:46:08.558Z,100234.00
2022-11-19T22:48:37.289Z,100232.97
2022-11-19T22:51:07.220Z,100230.50
2022-11-19T22:53:36.636Z,100238.84
2022-11-19T22:56:05.696Z,100231.91
2022-11-19T22:58:33.446Z,100227.22
2022-11-19T23:01:01.238Z,100227.22
2022-11-19T23:03:29.131Z,100226.81
2022-11-19T23:05:59.169Z,100219.97
2022-11-19T23:08:27.206Z,100230.50
2022-11-19T23:11:00.796Z,100230.63
2022-11-19T23:13:32.056Z,100230.88
2022-11-19T23:16:02.064Z,100226.25
2022-11-19T23:18:31.390Z,100224.75
2022-11-19T23:21:00.019Z,100227.53
2022-11-19T23:23:28.345Z,100222.31
2022-11-19T23:25:57.636Z,100225.69
2022-11-19T23:28:27.252Z,100231.59
2022-11-19T23:30:55.600Z,100225.69
2022-11-19T23:33:23.883Z,100226.06
2022-11-19T23:35:51.583Z,100221.66
2022-11-19T23:38:19.297Z,100222.44
2022-11-19T23:40:47.205Z,100217.56
2022-11-19T23:43:14.942Z,100213.28
2022-11-19T23:45:44.029Z,100215.91
2022-11-19T23:48:11.692Z,100212.91
2022-11-19T23:50:39.395Z,100209.16
2022-11-19T23:53:07.279Z,100204.41
2022-11-19T23:55:35.122Z,100207.16
2022-11-19T23:58:02.823Z,100194.84
